Aérodrome :
LOGIN :

S'inscrire | Disclaimer

   EN    FR    IT 

 










Légende :    VFR   VFR Marginal   IFR   IFR Intensif   IFR Très Intensif
Visi : 
Plafond : 
>= 8 km
>= 3000ft
5 à 8 km
1000 à 3000 ft
1500m à 5 km
500 à 1000 ft
800 à 1500m
200 à 500 ft
< 800m
< 200 ft
Symboles :   Orages  Brouillard  Fortes neiges  Fortes précipitations  Vent > 20 kt
SIGMETs :   Divers  Orages  Givrage  Turbulence  Onde Orograph.  Cendres Volcan.






- Altitude de l'aérodrome : 348 ft
- Code IATA : TSR


LRTR - Timisoara

DERNIER METAR :
  • 270730Z 33002KT 1000 R11/1500D R29/P2000 -RA BR BKN007 OVC030 05/05 Q1017 R11/29//95 TEMPO 0800 -RA BR

METARs EXPIRÉS :
  • 270700Z 00000KT 2000 -RA BR BKN008 OVC041 05/05 Q1017 R11/29//95 TEMPO 1500 -RA BR
  • 270630Z 31001KT 3000 -RA BR BKN010 OVC041 04/04 Q1017 R11/29//95 NOSIG
  • 270600Z 04002KT 4000 -RA BR BKN039 05/05 Q1017 RERA R11/29//95 NOSIG
  • 270530Z VRB02KT 4000 RA BR BKN037 04/04 Q1017 R11/29//95 NOSIG
  • 270500Z 35003KT 3000 RA BR OVC039 04/04 Q1017 R11/29//95 NOSIG
  • 270430Z 30003KT 5000 RA BR OVC042 04/04 Q1017 R11/29//95 TEMPO 3000 RA BR

TAF TAF LRTR
Valide du 27 à 06h jusqu'au 28 à 06h UTC


270500Z 2706/2806 VRB04KT 3000 -RA BR SCT015 OVC040
TEMPO 2708/2713 1500 RA BR BKN005 OVC030
BECMG 2713/2715 1500 -DZ BR BKN005 OVC020
BECMG 2716/2718 0800 -DZ FG OVC002
BECMG 2720/2722 0350 FG OVC001
BECMG 2803/2805 16010KT 1000 BR BKN005



MET'MAP, la Météo Aéronautique d'un coup d'oeil ! - Copyright ORBIFLY Décembre 2007 - Disclaimer

ORBIFLY MET'MAP TEAM :

Programmation & Développement : Alexandra Zaïnal
Sur une idée originale de : Baudouin d'Aumeries
Assistance à la programmation : Marc-Olivier Méhu
Soutien technique & logistique : Manuel Goepfert

Contact : metmap@orbifly.com




SOURCES & CREDITS :

   NOAA